createdAt,value
2018-05-26T00:01:42.695Z,99.90
2018-05-26T00:04:11.060Z,99.90
2018-05-26T00:06:39.756Z,99.90
2018-05-26T00:09:08.104Z,99.90
2018-05-26T00:11:35.693Z,99.90
2018-05-26T00:14:03.305Z,99.90
2018-05-26T00:16:30.972Z,99.90
2018-05-26T00:18:58.562Z,99.90
2018-05-26T00:21:26.164Z,99.90
2018-05-26T00:23:54.544Z,99.90
2018-05-26T00:26:22.118Z,99.90
2018-05-26T00:28:50.488Z,99.90
2018-05-26T00:31:18.105Z,99.90
2018-05-26T00:33:45.694Z,99.90
2018-05-26T00:36:13.313Z,99.90
2018-05-26T00:38:40.901Z,99.90
2018-05-26T00:41:08.540Z,99.90
2018-05-26T00:43:36.901Z,99.90
2018-05-26T00:46:04.532Z,99.90
2018-05-26T00:48:32.116Z,99.90
2018-05-26T00:50:59.736Z,99.90
2018-05-26T00:53:27.315Z,99.90
2018-05-26T00:55:55.303Z,99.90
2018-05-26T00:58:22.879Z,99.90
2018-05-26T01:00:51.443Z,99.90
2018-05-26T01:03:19.113Z,99.90
2018-05-26T01:05:46.777Z,99.90
2018-05-26T01:08:14.709Z,99.90
2018-05-26T01:10:43.050Z,99.90
2018-05-26T01:13:10.651Z,99.90
2018-05-26T01:15:39.078Z,99.90
2018-05-26T01:18:06.668Z,99.90
2018-05-26T01:20:34.259Z,99.90
2018-05-26T01:23:01.886Z,99.90
2018-05-26T01:25:29.487Z,99.90
2018-05-26T01:27:57.072Z,99.90
2018-05-26T01:30:25.453Z,99.90
2018-05-26T01:32:53.804Z,99.90
2018-05-26T01:35:21.414Z,99.90
2018-05-26T01:37:49.800Z,99.90
2018-05-26T01:40:18.151Z,99.90
2018-05-26T01:42:45.745Z,99.90
2018-05-26T01:45:15.117Z,99.90
2018-05-26T01:47:42.735Z,99.90
2018-05-26T01:50:10.352Z,99.90
2018-05-26T01:52:37.959Z,99.90
2018-05-26T01:55:05.771Z,99.90
2018-05-26T01:57:33.344Z,99.90
2018-05-26T02:00:00.924Z,99.90
2018-05-26T02:02:28.565Z,99.90
2018-05-26T02:04:56.138Z,99.90
2018-05-26T02:07:23.729Z,99.90
2018-05-26T02:09:52.120Z,99.90
2018-05-26T02:12:20.480Z,99.90
2018-05-26T02:14:48.110Z,99.90
2018-05-26T02:17:15.694Z,99.90
2018-05-26T02:19:43.496Z,99.90
2018-05-26T02:22:11.089Z,99.90
2018-05-26T02:24:38.671Z,99.90
2018-05-26T02:27:06.321Z,99.90
2018-05-26T02:29:33.917Z,99.90
2018-05-26T02:32:01.500Z,99.90
2018-05-26T02:34:29.131Z,99.90
2018-05-26T02:36:56.767Z,99.90
2018-05-26T02:39:25.182Z,99.90
2018-05-26T02:41:52.783Z,99.90
2018-05-26T02:44:20.358Z,99.90
2018-05-26T02:46:48.013Z,99.90
2018-05-26T02:49:15.629Z,99.90
2018-05-26T02:51:43.979Z,99.90
2018-05-26T02:54:11.608Z,99.90
2018-05-26T02:56:39.272Z,99.90
2018-05-26T02:59:06.864Z,99.90
2018-05-26T03:01:34.452Z,99.90
2018-05-26T03:04:01.577Z,99.90
2018-05-26T03:06:34.823Z,99.90
2018-05-26T03:09:08.816Z,99.90
2018-05-26T03:11:42.080Z,99.90
2018-05-26T03:14:15.386Z,99.90
2018-05-26T03:16:43.792Z,99.90
2018-05-26T03:19:11.372Z,99.90
2018-05-26T03:21:39.882Z,99.90
2018-05-26T03:24:07.466Z,99.90
2018-05-26T03:26:35.087Z,99.90
2018-05-26T03:29:03.432Z,99.90
2018-05-26T03:31:31.038Z,99.90
2018-05-26T03:33:59.376Z,99.90
2018-05-26T03:36:27.052Z,99.90
2018-05-26T03:38:54.609Z,99.90
2018-05-26T03:41:22.226Z,99.90
2018-05-26T03:43:49.803Z,99.90
2018-05-26T03:46:17.455Z,99.90
2018-05-26T03:48:45.813Z,99.90
2018-05-26T03:51:13.638Z,99.90
2018-05-26T03:53:41.253Z,99.90
2018-05-26T03:56:21.052Z,99.90
2018-05-26T04:12:17.064Z,99.90
2018-05-26T04:14:44.635Z,99.90
2018-05-26T04:17:12.534Z,99.90
2018-05-26T04:19:40.886Z,99.90
2018-05-26T04:22:08.467Z,99.90
2018-05-26T04:24:36.085Z,99.90
2018-05-26T04:27:03.686Z,99.90
2018-05-26T04:29:31.258Z,99.90
2018-05-26T04:31:58.940Z,99.90
2018-05-26T04:34:26.574Z,99.90
2018-05-26T04:36:54.190Z,99.90
2018-05-26T04:39:22.543Z,99.90
2018-05-26T04:41:50.126Z,99.90
2018-05-26T04:44:17.728Z,99.90
2018-05-26T04:46:45.340Z,99.90
2018-05-26T04:49:12.964Z,99.90
2018-05-26T04:51:40.577Z,99.90
2018-05-26T04:54:08.202Z,99.90
2018-05-26T04:56:35.826Z,99.90
2018-05-26T04:59:04.218Z,99.90
2018-05-26T05:01:33.008Z,99.90
2018-05-26T05:04:01.413Z,99.90
2018-05-26T05:06:29.059Z,99.90
2018-05-26T05:08:57.460Z,99.90
2018-05-26T05:11:25.312Z,99.90
2018-05-26T05:13:53.735Z,99.90
2018-05-26T05:16:21.320Z,99.90
2018-05-26T05:18:48.927Z,99.90
2018-05-26T05:21:17.297Z,99.90
2018-05-26T05:23:44.936Z,99.90
2018-05-26T05:26:12.528Z,99.90
2018-05-26T05:28:40.256Z,99.90
2018-05-26T05:31:07.891Z,99.90
2018-05-26T05:33:35.469Z,99.90
2018-05-26T05:36:03.073Z,99.90
2018-05-26T05:38:30.970Z,99.90
2018-05-26T05:40:58.613Z,99.90
2018-05-26T05:43:26.244Z,99.90
2018-05-26T05:45:53.859Z,99.90
2018-05-26T05:48:21.466Z,99.90
2018-05-26T05:50:49.120Z,99.90
2018-05-26T05:53:17.515Z,99.90
2018-05-26T05:55:45.091Z,99.90
2018-05-26T05:58:12.702Z,99.90
2018-05-26T06:00:40.342Z,99.90
2018-05-26T06:03:08.950Z,99.90
2018-05-26T06:05:36.625Z,99.90
2018-05-26T06:08:05.150Z,99.90
2018-05-26T06:10:32.789Z,99.90
2018-05-26T06:13:00.418Z,99.90
2018-05-26T06:15:28.054Z,99.90
2018-05-26T06:17:55.705Z,99.90
2018-05-26T06:20:23.339Z,99.90
2018-05-26T06:22:50.939Z,99.90
2018-05-26T06:25:19.318Z,99.90
2018-05-26T06:27:47.668Z,99.90
2018-05-26T06:30:15.293Z,99.90
2018-05-26T06:32:42.948Z,99.90
2018-05-26T06:35:10.576Z,99.90
2018-05-26T06:37:38.175Z,99.90
2018-05-26T06:40:06.912Z,99.90
2018-05-26T06:42:34.523Z,99.90
2018-05-26T06:45:02.974Z,99.90
2018-05-26T06:47:30.702Z,99.90
2018-05-26T06:49:58.288Z,99.90
2018-05-26T06:52:25.869Z,99.90
2018-05-26T06:54:53.523Z,99.90
2018-05-26T06:57:21.121Z,99.90
2018-05-26T06:59:48.778Z,99.90
2018-05-26T07:02:16.811Z,99.90
2018-05-26T07:04:44.459Z,99.90
2018-05-26T07:07:12.075Z,99.90
2018-05-26T07:09:39.833Z,99.90
2018-05-26T07:12:07.457Z,99.90
2018-05-26T07:14:35.819Z,99.90
2018-05-26T07:17:04.196Z,99.90
2018-05-26T07:19:32.609Z,99.90
2018-05-26T07:22:00.261Z,99.90
2018-05-26T07:24:28.638Z,99.90
2018-05-26T07:26:56.289Z,99.90
2018-05-26T07:29:23.902Z,99.90
2018-05-26T07:31:51.555Z,99.90
2018-05-26T07:34:19.972Z,99.90
2018-05-26T07:36:47.584Z,99.90
2018-05-26T07:39:15.237Z,99.90
2018-05-26T07:41:42.824Z,99.90
2018-05-26T07:44:10.462Z,99.90
2018-05-26T07:46:38.058Z,99.90
2018-05-26T07:49:06.450Z,99.90
2018-05-26T07:51:34.811Z,99.90
2018-05-26T07:54:02.429Z,99.90
2018-05-26T07:56:30.025Z,99.90
2018-05-26T07:58:57.681Z,99.90
2018-05-26T08:01:25.283Z,99.90
2018-05-26T08:03:52.910Z,99.90
2018-05-26T08:06:20.508Z,99.30
2018-05-26T08:08:48.130Z,98.00
2018-05-26T08:11:15.735Z,98.60
2018-05-26T08:13:43.361Z,96.20
2018-05-26T08:16:10.985Z,96.10
2018-05-26T08:18:39.379Z,95.90
2018-05-26T08:21:07.748Z,94.50
2018-05-26T08:23:36.148Z,90.50
2018-05-26T08:26:04.535Z,93.00
2018-05-26T08:28:32.891Z,92.30
2018-05-26T08:31:00.565Z,92.40
2018-05-26T08:33:28.270Z,92.50
2018-05-26T08:35:56.106Z,90.70
2018-05-26T08:38:24.472Z,92.40
2018-05-26T08:40:52.073Z,92.20
2018-05-26T08:43:19.706Z,91.10
2018-05-26T08:45:47.326Z,90.10
2018-05-26T08:48:15.011Z,86.80
2018-05-26T08:50:42.620Z,88.60
2018-05-26T08:53:11.002Z,83.70
2018-05-26T08:55:38.649Z,83.10
2018-05-26T08:58:06.313Z,87.50
2018-05-26T09:00:33.937Z,84.40
2018-05-26T09:03:01.544Z,82.60
2018-05-26T09:05:29.138Z,79.80
2018-05-26T09:07:57.526Z,82.60
2018-05-26T09:10:25.912Z,78.20
2018-05-26T09:12:54.276Z,75.80
2018-05-26T09:15:21.898Z,75.80
2018-05-26T09:17:49.496Z,76.30
2018-05-26T09:20:17.119Z,76.90
2018-05-26T09:22:44.744Z,78.30
2018-05-26T09:25:12.444Z,74.40
2018-05-26T09:27:40.529Z,73.30
2018-05-26T09:30:08.224Z,72.30
2018-05-26T09:32:35.858Z,73.50
2018-05-26T09:35:03.483Z,72.30
2018-05-26T09:37:31.088Z,74.20
2018-05-26T09:39:58.750Z,74.10
2018-05-26T09:42:26.379Z,69.60
2018-05-26T09:44:54.018Z,72.80
2018-05-26T09:47:21.679Z,71.50
2018-05-26T09:49:49.323Z,67.60
2018-05-26T09:52:17.014Z,71.70
2018-05-26T09:54:44.642Z,68.80
2018-05-26T09:57:13.113Z,64.70
2018-05-26T09:59:40.758Z,64.60
2018-05-26T10:02:08.391Z,64.90
2018-05-26T10:04:36.000Z,63.70
2018-05-26T10:07:03.623Z,60.10
2018-05-26T10:09:31.264Z,65.20
2018-05-26T10:11:59.664Z,62.50
2018-05-26T10:14:27.292Z,62.70
2018-05-26T10:16:56.001Z,55.10
2018-05-26T10:19:24.380Z,62.20
2018-05-26T10:21:52.737Z,63.30
2018-05-26T10:24:20.361Z,63.40
2018-05-26T10:26:48.147Z,58.50
2018-05-26T10:29:15.778Z,59.50
2018-05-26T10:31:43.388Z,59.60
2018-05-26T10:34:11.188Z,59.70
2018-05-26T10:36:38.833Z,56.50
2018-05-26T10:39:06.460Z,56.50
2018-05-26T10:41:34.113Z,55.20
2018-05-26T10:44:01.746Z,56.70
2018-05-26T10:46:29.398Z,57.70
2018-05-26T10:48:57.068Z,54.30
2018-05-26T10:51:24.747Z,55.70
2018-05-26T10:53:52.376Z,51.80
2018-05-26T10:56:20.066Z,54.40
2018-05-26T10:58:47.694Z,53.60
2018-05-26T11:01:15.280Z,54.30
2018-05-26T11:03:42.909Z,51.10
2018-05-26T11:06:11.325Z,52.60
2018-05-26T11:08:38.912Z,52.70
2018-05-26T11:11:06.536Z,52.90
2018-05-26T11:13:34.179Z,57.20
2018-05-26T11:16:01.807Z,49.60
2018-05-26T11:18:29.536Z,51.20
2018-05-26T11:20:57.227Z,50.50
2018-05-26T11:23:24.853Z,50.80
2018-05-26T11:25:52.592Z,50.20
2018-05-26T11:28:20.224Z,52.50
2018-05-26T11:30:48.153Z,52.60
2018-05-26T11:33:16.763Z,47.20
2018-05-26T11:35:45.110Z,49.90
2018-05-26T11:38:12.742Z,49.90
2018-05-26T11:40:40.413Z,51.10
2018-05-26T11:43:08.078Z,50.50
2018-05-26T11:45:35.728Z,49.50
2018-05-26T11:48:03.325Z,48.60
2018-05-26T11:50:31.739Z,47.30
2018-05-26T11:52:59.387Z,47.20
2018-05-26T11:55:26.986Z,46.00
2018-05-26T11:57:55.361Z,50.60
2018-05-26T12:00:23.779Z,48.80
2018-05-26T12:02:51.423Z,48.80
2018-05-26T12:05:19.034Z,48.70
2018-05-26T12:07:46.773Z,48.20
2018-05-26T12:10:14.411Z,49.20
2018-05-26T12:12:42.800Z,49.30
2018-05-26T12:15:11.217Z,40.50
2018-05-26T12:17:38.813Z,40.60
2018-05-26T12:20:06.620Z,44.20
2018-05-26T12:22:34.977Z,42.50
2018-05-26T12:25:02.685Z,42.50
2018-05-26T12:27:30.299Z,40.20
2018-05-26T12:29:57.888Z,41.00
2018-05-26T12:32:25.528Z,42.10
2018-05-26T12:34:53.140Z,46.70
2018-05-26T12:37:21.531Z,42.30
2018-05-26T12:39:49.164Z,43.00
2018-05-26T12:42:16.774Z,46.60
2018-05-26T12:44:44.383Z,44.50
2018-05-26T12:47:11.998Z,46.70
2018-05-26T12:49:39.612Z,49.40
2018-05-26T12:52:07.241Z,44.60
2018-05-26T12:54:34.849Z,46.20
2018-05-26T12:57:03.341Z,45.10
2018-05-26T12:59:30.961Z,45.00
2018-05-26T13:01:58.583Z,41.10
2018-05-26T13:04:26.207Z,40.90
2018-05-26T13:06:53.790Z,41.00
2018-05-26T13:09:21.425Z,45.40
2018-05-26T13:11:49.040Z,40.40
2018-05-26T13:14:16.700Z,41.40
2018-05-26T13:16:44.544Z,40.70
2018-05-26T13:19:12.136Z,41.70
2018-05-26T13:21:39.754Z,42.00
2018-05-26T13:24:07.771Z,41.00
2018-05-26T13:26:35.397Z,41.70
2018-05-26T13:29:03.011Z,44.40
2018-05-26T13:31:30.706Z,41.10
2018-05-26T13:33:58.388Z,45.10
2018-05-26T13:36:26.001Z,46.00
2018-05-26T13:38:53.651Z,45.10
2018-05-26T13:41:21.247Z,42.50
2018-05-26T13:43:48.869Z,43.20
2018-05-26T13:46:16.476Z,45.70
2018-05-26T13:48:45.163Z,49.80
2018-05-26T13:51:12.792Z,49.00
2018-05-26T13:53:40.485Z,51.70
2018-05-26T13:56:08.151Z,52.40
2018-05-26T13:58:35.756Z,53.30
2018-05-26T14:01:03.405Z,54.90
2018-05-26T14:03:31.807Z,56.20
2018-05-26T14:05:59.423Z,56.10
2018-05-26T14:08:27.078Z,55.90
2018-05-26T14:10:54.753Z,57.20
2018-05-26T14:13:22.348Z,57.10
2018-05-26T14:15:50.760Z,58.50
2018-05-26T14:18:18.396Z,59.10
2018-05-26T14:20:46.064Z,58.50
2018-05-26T14:23:14.501Z,60.10
2018-05-26T14:25:42.164Z,60.00
2018-05-26T14:28:09.800Z,59.40
2018-05-26T14:30:38.240Z,60.20
2018-05-26T14:33:05.871Z,60.10
2018-05-26T14:35:33.518Z,61.20
2018-05-26T14:38:01.179Z,61.40
2018-05-26T14:40:29.574Z,61.90
2018-05-26T14:42:57.168Z,61.90
2018-05-26T14:45:24.874Z,62.50
2018-05-26T14:47:53.320Z,62.90
2018-05-26T14:50:20.937Z,62.90
2018-05-26T14:52:49.336Z,63.20
2018-05-26T14:55:16.996Z,63.20
2018-05-26T14:57:45.370Z,63.00
2018-05-26T15:00:12.982Z,63.00
2018-05-26T15:02:40.616Z,63.20
2018-05-26T15:05:08.979Z,65.40
2018-05-26T15:07:36.579Z,65.40
2018-05-26T15:10:04.223Z,65.50
2018-05-26T15:12:32.582Z,66.70
2018-05-26T15:15:00.181Z,66.70
2018-05-26T15:17:28.886Z,66.00
2018-05-26T15:19:56.571Z,66.00
2018-05-26T15:22:24.189Z,66.60
2018-05-26T15:24:52.558Z,67.00
2018-05-26T15:27:20.217Z,67.00
2018-05-26T15:29:47.860Z,67.20
2018-05-26T15:32:15.469Z,68.20
2018-05-26T15:34:43.888Z,69.70
2018-05-26T15:37:11.484Z,68.80
2018-05-26T15:39:39.093Z,69.40
2018-05-26T15:42:07.528Z,68.70
2018-05-26T15:44:35.136Z,68.70
2018-05-26T15:47:03.537Z,70.20
2018-05-26T15:49:32.126Z,69.00
2018-05-26T15:51:59.847Z,69.00
2018-05-26T15:54:27.435Z,70.70
2018-05-26T15:56:55.250Z,69.70
2018-05-26T15:59:22.843Z,67.70
2018-05-26T16:01:50.571Z,68.40
2018-05-26T16:04:18.202Z,68.40
2018-05-26T16:06:45.821Z,65.60
2018-05-26T16:09:13.500Z,67.70
2018-05-26T16:11:41.155Z,66.10
2018-05-26T16:14:08.750Z,65.80
2018-05-26T16:16:36.866Z,67.50
2018-05-26T16:19:05.270Z,67.20
2018-05-26T16:21:32.894Z,67.20
2018-05-26T16:24:00.495Z,68.40
2018-05-26T16:26:28.165Z,68.20
2018-05-26T16:28:57.277Z,68.70
2018-05-26T16:31:24.871Z,68.70
2018-05-26T16:33:52.546Z,69.60
2018-05-26T16:36:20.175Z,68.80
2018-05-26T16:38:47.858Z,70.50
2018-05-26T16:41:15.550Z,69.80
2018-05-26T16:43:44.102Z,68.30
2018-05-26T16:46:11.677Z,68.30
2018-05-26T16:48:39.325Z,69.70
2018-05-26T16:51:07.060Z,68.60
2018-05-26T16:53:34.763Z,67.80
2018-05-26T16:56:02.356Z,68.60
2018-05-26T16:58:29.993Z,67.60
2018-05-26T17:00:57.629Z,67.50
2018-05-26T17:03:26.628Z,67.90
2018-05-26T17:05:54.307Z,67.90
2018-05-26T17:08:22.679Z,69.70
2018-05-26T17:10:50.495Z,69.60
2018-05-26T17:13:18.437Z,69.20
2018-05-26T17:15:46.834Z,71.20
2018-05-26T17:18:14.530Z,71.20
2018-05-26T17:20:42.217Z,72.80
2018-05-26T17:23:10.054Z,72.80
2018-05-26T17:25:37.737Z,73.50
2018-05-26T17:28:05.364Z,74.20
2018-05-26T17:30:33.121Z,74.40
2018-05-26T17:33:01.630Z,74.40
2018-05-26T17:35:29.313Z,74.40
2018-05-26T17:37:57.180Z,75.90
2018-05-26T17:40:24.865Z,75.90
2018-05-26T17:42:53.256Z,77.90
2018-05-26T17:45:21.636Z,77.70
2018-05-26T17:47:49.300Z,79.40
2018-05-26T17:50:16.968Z,79.20
2018-05-26T17:52:44.571Z,80.00
2018-05-26T17:55:12.167Z,80.00
2018-05-26T17:57:40.150Z,79.80
2018-05-26T18:00:07.794Z,82.20
2018-05-26T18:02:36.837Z,83.20
2018-05-26T18:05:04.496Z,83.10
2018-05-26T18:07:32.116Z,84.30
2018-05-26T18:09:59.735Z,87.10
2018-05-26T18:12:27.433Z,86.00
2018-05-26T18:14:55.047Z,89.00
2018-05-26T18:17:22.646Z,90.30
2018-05-26T18:19:50.521Z,91.60
2018-05-26T18:22:18.276Z,92.00
2018-05-26T18:24:45.919Z,93.30
2018-05-26T18:27:13.533Z,93.90
2018-05-26T18:29:41.185Z,93.60
2018-05-26T18:32:08.818Z,93.70
2018-05-26T18:34:37.179Z,95.60
2018-05-26T18:37:05.607Z,96.70
2018-05-26T18:39:33.248Z,96.70
2018-05-26T18:42:00.892Z,97.80
2018-05-26T18:44:28.858Z,98.90
2018-05-26T18:46:56.487Z,99.50
2018-05-26T18:49:24.077Z,99.90
2018-05-26T18:51:51.709Z,99.90
2018-05-26T18:54:19.378Z,99.90
2018-05-26T18:56:46.987Z,99.90
2018-05-26T18:59:14.607Z,99.90
2018-05-26T19:01:42.988Z,99.90
2018-05-26T19:04:11.386Z,99.90
2018-05-26T19:06:39.086Z,99.90
2018-05-26T19:09:06.690Z,99.90
2018-05-26T19:11:34.283Z,99.90
2018-05-26T19:14:01.984Z,99.90
2018-05-26T19:16:29.585Z,99.90
2018-05-26T19:18:57.255Z,99.90
2018-05-26T19:21:24.874Z,99.90
2018-05-26T19:23:52.493Z,99.90
2018-05-26T19:26:21.130Z,99.90
2018-05-26T19:28:48.752Z,99.90
2018-05-26T19:31:16.388Z,99.90
2018-05-26T19:33:44.011Z,99.90
2018-05-26T19:36:11.620Z,99.90
2018-05-26T19:38:40.155Z,99.90
2018-05-26T19:41:07.757Z,99.90
2018-05-26T19:43:35.358Z,99.90
2018-05-26T19:46:03.782Z,99.90
2018-05-26T19:48:31.411Z,99.90
2018-05-26T19:50:59.821Z,99.90
2018-05-26T19:53:27.439Z,99.90
2018-05-26T19:55:55.064Z,99.90
2018-05-26T19:58:22.717Z,99.90
2018-05-26T20:00:50.400Z,99.90
2018-05-26T20:03:18.038Z,99.90
2018-05-26T20:05:46.432Z,99.90
2018-05-26T20:08:14.828Z,99.90
2018-05-26T20:10:43.212Z,99.90
2018-05-26T20:13:10.881Z,99.90
2018-05-26T20:15:39.388Z,99.90
2018-05-26T20:18:07.024Z,99.90
2018-05-26T20:20:34.653Z,99.90
2018-05-26T20:23:02.275Z,99.90
2018-05-26T20:25:29.874Z,99.90
2018-05-26T20:27:57.532Z,99.90
2018-05-26T20:30:25.245Z,99.90
2018-05-26T20:32:53.640Z,99.90
2018-05-26T20:35:21.275Z,99.90
2018-05-26T20:37:48.929Z,99.90
2018-05-26T20:40:16.571Z,99.90
2018-05-26T20:42:44.216Z,99.90
2018-05-26T20:45:12.673Z,99.90
2018-05-26T20:47:41.034Z,99.90
2018-05-26T20:50:08.709Z,99.90
2018-05-26T20:52:36.327Z,99.90
2018-05-26T20:55:03.956Z,99.90
2018-05-26T20:57:31.596Z,99.90
2018-05-26T20:59:59.232Z,99.90
2018-05-26T21:02:26.872Z,99.90
2018-05-26T21:04:54.517Z,99.90
2018-05-26T21:07:22.154Z,99.90
2018-05-26T21:09:49.814Z,99.90
2018-05-26T21:12:17.442Z,99.90
2018-05-26T21:14:45.095Z,99.90
2018-05-26T21:17:12.784Z,99.90
2018-05-26T21:19:40.429Z,99.90
2018-05-26T21:22:08.034Z,99.90
2018-05-26T21:24:35.652Z,99.90
2018-05-26T21:27:03.246Z,99.90
2018-05-26T21:29:30.843Z,99.90
2018-05-26T21:31:58.497Z,99.90
2018-05-26T21:34:26.131Z,99.90
2018-05-26T21:36:54.548Z,99.90
2018-05-26T21:39:22.163Z,99.90
2018-05-26T21:41:49.782Z,99.90
2018-05-26T21:44:17.603Z,99.90
2018-05-26T21:46:46.141Z,99.90
2018-05-26T21:49:13.748Z,99.90
2018-05-26T21:51:42.184Z,99.90
2018-05-26T21:54:09.816Z,99.90
2018-05-26T21:56:38.175Z,99.90
2018-05-26T21:59:05.832Z,99.90
2018-05-26T22:01:33.463Z,99.90
2018-05-26T22:04:01.062Z,99.90
2018-05-26T22:06:28.691Z,99.90
2018-05-26T22:08:56.303Z,99.90
2018-05-26T22:11:23.921Z,99.90
2018-05-26T22:13:51.590Z,99.90
2018-05-26T22:16:20.390Z,99.90
2018-05-26T22:18:48.002Z,99.90
2018-05-26T22:21:15.606Z,99.90
2018-05-26T22:23:43.430Z,99.90
2018-05-26T22:26:11.024Z,99.90
2018-05-26T22:28:38.674Z,99.90
2018-05-26T22:31:06.312Z,99.90
2018-05-26T22:33:33.975Z,99.90
2018-05-26T22:36:01.575Z,99.90
2018-05-26T22:38:30.010Z,99.90
2018-05-26T22:40:57.941Z,99.90
2018-05-26T22:43:25.561Z,99.90
2018-05-26T22:45:53.161Z,99.90
2018-05-26T22:48:21.564Z,99.90
2018-05-26T22:50:49.987Z,99.90
2018-05-26T22:53:17.682Z,99.90
2018-05-26T22:55:45.278Z,99.90
2018-05-26T22:58:13.733Z,99.90
2018-05-26T23:00:41.329Z,99.90
2018-05-26T23:03:09.721Z,99.90
2018-05-26T23:05:38.361Z,99.90
2018-05-26T23:08:05.954Z,99.90
2018-05-26T23:10:33.566Z,99.90
2018-05-26T23:13:01.191Z,99.90
2018-05-26T23:15:28.808Z,99.90
2018-05-26T23:17:56.444Z,99.90
2018-05-26T23:20:24.817Z,99.90
2018-05-26T23:22:53.534Z,99.90
2018-05-26T23:25:21.179Z,99.90
2018-05-26T23:27:49.556Z,99.90
2018-05-26T23:30:17.225Z,99.90
2018-05-26T23:32:45.606Z,99.90
2018-05-26T23:35:13.997Z,99.90
2018-05-26T23:37:42.371Z,99.90
2018-05-26T23:40:10.764Z,99.90
2018-05-26T23:42:39.210Z,99.90
2018-05-26T23:45:06.811Z,99.90
2018-05-26T23:47:35.225Z,99.90
2018-05-26T23:50:02.829Z,99.90
2018-05-26T23:52:30.423Z,99.90
2018-05-26T23:54:58.841Z,99.90
2018-05-26T23:57:26.505Z,99.90
2018-05-26T23:59:54.117Z,99.90
